Time;durP1;ratioP1;P1;durP2;ratioP2;P2;SDS_P1;SDS_P2;PMS_P1;PMS_P2;Temp;Humidity;BMP_temperature;BMP_pressure;BME280_temperature;BME280_humidity;BME280_pressure;Samples;Min_cycle;Max_cycle;Signal;HPM_P1;HPM_P2
2021/06/20 00:01:54;;;;;;;8.05;2.28;;;24.10;99.90;;;;;;5065504;28;20402;-54
2021/06/20 00:04:20;;;;;;;8.23;2.05;;;24.20;99.90;;;;;;5064372;28;20033;-54
2021/06/20 00:06:49;;;;;;;8.52;2.60;;;24.20;99.90;;;;;;5064729;28;20106;-53
2021/06/20 00:09:15;;;;;;;10.98;2.92;;;24.10;99.90;;;;;;5064807;28;21049;-55
2021/06/20 00:11:43;;;;;;;7.13;2.80;;;24.10;99.90;;;;;;5063791;28;20028;-54
2021/06/20 00:14:10;;;;;;;14.52;3.88;;;24.00;99.90;;;;;;5064646;28;20508;-53
2021/06/20 00:16:38;;;;;;;10.60;2.80;;;23.80;99.90;;;;;;5064491;28;20029;-55
2021/06/20 00:19:06;;;;;;;6.93;2.88;;;23.90;99.90;;;;;;5064578;28;20028;-54
2021/06/20 00:21:32;;;;;;;10.32;2.80;;;24.00;99.90;;;;;;5064400;28;20020;-54
2021/06/20 00:23:58;;;;;;;13.07;3.58;;;23.90;99.90;;;;;;5064318;28;20402;-54
2021/06/20 00:26:24;;;;;;;9.48;2.88;;;23.80;99.90;;;;;;5065452;28;20021;-54
2021/06/20 00:28:49;;;;;;;9.82;3.05;;;23.80;99.90;;;;;;5064690;28;20032;-54
2021/06/20 00:31:16;;;;;;;10.68;2.75;;;23.80;99.90;;;;;;5064511;28;20024;-53
2021/06/20 00:33:43;;;;;;;11.82;2.92;;;23.80;99.90;;;;;;5064467;28;20115;-54
2021/06/20 00:36:09;;;;;;;7.93;2.78;;;23.70;99.90;;;;;;5062286;28;20408;-52
2021/06/20 00:38:37;;;;;;;9.43;3.38;;;23.80;99.90;;;;;;5064581;28;20039;-53
2021/06/20 00:41:03;;;;;;;6.93;2.47;;;23.70;99.90;;;;;;5064224;28;20028;-53
2021/06/20 00:43:29;;;;;;;9.02;2.63;;;23.70;99.90;;;;;;5075215;28;20075;-54
2021/06/20 00:45:54;;;;;;;9.68;3.22;;;23.70;99.90;;;;;;5085748;28;20051;-54
2021/06/20 00:48:20;;;;;;;10.50;3.17;;;23.70;99.90;;;;;;5085496;28;20036;-54
2021/06/20 00:50:47;;;;;;;11.75;3.42;;;23.70;99.90;;;;;;5084854;28;20560;-53
2021/06/20 00:53:13;;;;;;;11.05;3.35;;;23.60;99.90;;;;;;5084317;28;20028;-55
2021/06/20 00:55:39;;;;;;;8.35;3.03;;;23.60;99.90;;;;;;5085231;28;20084;-54
2021/06/20 00:58:07;;;;;;;7.80;2.65;;;23.70;99.90;;;;;;5085021;28;20032;-50
2021/06/20 01:00:34;;;;;;;10.80;3.45;;;23.50;99.90;;;;;;5073861;28;20020;-54
2021/06/20 01:03:01;;;;;;;8.20;2.92;;;23.60;99.90;;;;;;5064845;28;20052;-52
2021/06/20 01:05:27;;;;;;;8.90;3.10;;;23.60;99.90;;;;;;5064915;28;20100;-55
2021/06/20 01:07:54;;;;;;;11.10;3.10;;;23.50;99.90;;;;;;5085994;28;20459;-56
2021/06/20 01:10:22;;;;;;;9.23;3.45;;;23.60;99.90;;;;;;5085076;28;20028;-56
2021/06/20 01:12:48;;;;;;;11.43;3.63;;;23.50;99.90;;;;;;5083558;28;20050;-56
2021/06/20 01:15:16;;;;;;;9.55;2.70;;;23.60;99.90;;;;;;5081140;28;20040;-56
2021/06/20 01:17:42;;;;;;;9.15;2.95;;;23.60;99.90;;;;;;5069594;28;20032;-56
2021/06/20 01:20:12;;;;;;;8.68;2.97;;;23.60;99.90;;;;;;5063418;28;20064;-55
2021/06/20 01:22:40;;;;;;;8.65;2.55;;;23.50;99.90;;;;;;5064367;28;20056;-56
2021/06/20 01:25:24;;;;;;;10.43;2.90;;;23.60;99.90;;;;;;5064449;28;20127;-56
2021/06/20 01:27:57;;;;;;;13.82;3.35;;;23.60;99.90;;;;;;5064808;28;20032;-55
2021/06/20 01:30:26;;;;;;;5.03;2.03;;;23.60;99.90;;;;;;5069054;28;20032;-56
2021/06/20 01:32:54;;;;;;;9.05;2.67;;;23.70;99.90;;;;;;5085212;28;20027;-55
2021/06/20 01:35:22;;;;;;;9.10;2.42;;;23.70;99.90;;;;;;5088008;28;20028;-55
2021/06/20 01:37:47;;;;;;;8.60;2.65;;;23.60;99.90;;;;;;5088636;28;20066;-55
2021/06/20 01:40:15;;;;;;;9.75;2.72;;;23.50;99.90;;;;;;5088804;28;20409;-55
2021/06/20 01:42:41;;;;;;;5.53;2.00;;;23.60;99.90;;;;;;5088756;28;20024;-55
2021/06/20 01:45:09;;;;;;;5.53;2.13;;;23.60;99.90;;;;;;5088246;28;20028;-55
2021/06/20 01:47:36;;;;;;;7.22;2.90;;;23.60;99.90;;;;;;5088633;28;20034;-55
2021/06/20 01:50:06;;;;;;;8.15;2.55;;;23.60;99.90;;;;;;5087953;28;20025;-52
2021/06/20 01:52:34;;;;;;;7.45;2.50;;;23.60;99.90;;;;;;5087655;28;20405;-52
2021/06/20 01:54:59;;;;;;;7.25;2.58;;;23.50;99.90;;;;;;5088551;28;20085;-53
2021/06/20 01:57:29;;;;;;;4.03;1.83;;;23.50;99.90;;;;;;5074582;28;20476;-54
2021/06/20 01:59:57;;;;;;;7.00;2.25;;;23.60;99.90;;;;;;5068350;28;20448;-53
2021/06/20 02:02:25;;;;;;;3.97;2.13;;;23.50;99.90;;;;;;5068401;28;20100;-53
2021/06/20 02:04:54;;;;;;;3.47;1.50;;;23.60;99.90;;;;;;5066822;28;20028;-53
2021/06/20 02:07:20;;;;;;;1.65;1.23;;;23.60;99.90;;;;;;5068397;28;20021;-53
2021/06/20 02:09:46;;;;;;;2.15;1.13;;;23.70;99.90;;;;;;5067945;28;20495;-53
2021/06/20 02:12:14;;;;;;;3.55;1.40;;;23.80;99.90;;;;;;5067402;28;20028;-52
2021/06/20 02:14:40;;;;;;;4.18;1.40;;;23.80;99.90;;;;;;5067199;28;20122;-54
2021/06/20 02:17:30;;;;;;;3.28;1.20;;;23.70;99.90;;;;;;5067422;28;20510;-52
2021/06/20 02:20:18;;;;;;;4.90;1.40;;;23.90;99.90;;;;;;5067259;28;20448;-54
2021/06/20 02:22:45;;;;;;;5.13;1.30;;;24.00;99.90;;;;;;5067678;28;20021;-53
2021/06/20 02:25:13;;;;;;;3.30;1.50;;;24.00;99.90;;;;;;5067202;28;20376;-53
2021/06/20 02:27:39;;;;;;;3.47;1.73;;;23.90;99.90;;;;;;5067544;28;20027;-53
2021/06/20 02:30:06;;;;;;;2.78;1.10;;;24.00;99.90;;;;;;5067758;28;20036;-52
2021/06/20 02:32:32;;;;;;;1.80;0.90;;;24.10;99.90;;;;;;5082406;28;20028;-52
2021/06/20 02:34:57;;;;;;;2.60;1.30;;;24.10;99.90;;;;;;5087272;28;20020;-52
2021/06/20 02:37:24;;;;;;;2.97;1.38;;;24.10;99.90;;;;;;5088154;28;20099;-53
2021/06/20 02:39:51;;;;;;;2.20;1.05;;;24.00;99.90;;;;;;5087862;28;20043;-53
2021/06/20 02:42:17;;;;;;;3.00;1.30;;;24.00;99.90;;;;;;5087691;28;20048;-53
2021/06/20 02:44:43;;;;;;;2.78;1.60;;;24.00;99.90;;;;;;5088789;28;20087;-53
2021/06/20 02:47:09;;;;;;;3.17;1.13;;;23.80;99.90;;;;;;5088372;28;20028;-54
2021/06/20 02:49:37;;;;;;;2.33;1.10;;;23.80;99.90;;;;;;5088791;28;20543;-53
2021/06/20 02:52:04;;;;;;;4.05;1.30;;;23.80;99.90;;;;;;5088044;28;20028;-53
2021/06/20 02:54:30;;;;;;;1.83;1.00;;;23.90;99.90;;;;;;5088877;28;20023;-53
2021/06/20 02:56:57;;;;;;;3.47;1.40;;;24.00;99.90;;;;;;5077126;28;20036;-53
2021/06/20 02:59:23;;;;;;;2.00;1.30;;;23.90;99.90;;;;;;5069047;28;20021;-54
2021/06/20 03:01:48;;;;;;;4.18;1.90;;;23.80;99.90;;;;;;5068305;28;20028;-53
2021/06/20 03:04:14;;;;;;;2.13;1.58;;;23.70;99.90;;;;;;5067614;28;20047;-53
2021/06/20 03:06:40;;;;;;;6.75;1.92;;;23.70;99.90;;;;;;5068497;28;20087;-53
2021/06/20 03:09:06;;;;;;;6.53;1.67;;;23.60;99.90;;;;;;5068047;28;20019;-53
2021/06/20 03:11:35;;;;;;;2.95;1.80;;;23.60;99.90;;;;;;5067996;28;20383;-53
2021/06/20 03:14:01;;;;;;;4.00;2.22;;;23.70;99.90;;;;;;5067870;28;20024;-51
2021/06/20 03:16:27;;;;;;;1.50;1.13;;;23.70;99.90;;;;;;5067862;28;20441;-53
2021/06/20 03:18:53;;;;;;;1.95;1.17;;;23.80;99.90;;;;;;5068378;28;20024;-53
2021/06/20 03:21:19;;;;;;;3.08;1.25;;;23.80;99.90;;;;;;5067617;28;20086;-53
2021/06/20 03:23:45;;;;;;;1.92;1.20;;;23.80;99.90;;;;;;5067828;28;20032;-53
2021/06/20 03:26:11;;;;;;;1.50;1.08;;;23.70;99.90;;;;;;5067765;28;20410;-53
2021/06/20 03:28:37;;;;;;;2.47;1.17;;;23.80;99.90;;;;;;5067930;28;20031;-51
2021/06/20 03:31:03;;;;;;;2.95;1.23;;;23.80;99.90;;;;;;5067352;28;20028;-53
2021/06/20 03:33:30;;;;;;;1.13;0.98;;;23.80;99.90;;;;;;5067442;28;20028;-54
2021/06/20 03:35:56;;;;;;;3.28;1.30;;;23.80;99.90;;;;;;5067246;28;20039;-53
2021/06/20 03:38:22;;;;;;;3.40;1.42;;;23.80;99.90;;;;;;5068179;28;20052;-53
2021/06/20 03:40:49;;;;;;;5.30;1.95;;;23.60;99.90;;;;;;5067467;28;20064;-53
2021/06/20 03:43:14;;;;;;;3.38;1.58;;;23.40;99.90;;;;;;5067358;28;20119;-53
2021/06/20 03:45:40;;;;;;;4.10;1.50;;;23.50;99.90;;;;;;5067379;28;20032;-53
2021/06/20 03:48:06;;;;;;;4.45;1.50;;;23.50;99.90;;;;;;5066926;28;20131;-53
2021/06/20 03:50:32;;;;;;;2.50;1.25;;;23.50;99.90;;;;;;5066760;28;20024;-53
2021/06/20 03:52:58;;;;;;;2.78;1.33;;;23.50;99.90;;;;;;5066222;28;20025;-53
2021/06/20 03:55:24;;;;;;;1.98;1.08;;;23.60;99.90;;;;;;5067561;28;20487;-53
2021/06/20 03:57:50;;;;;;;2.75;1.60;;;23.60;99.90;;;;;;5067596;28;20124;-54
2021/06/20 04:00:16;;;;;;;4.40;1.45;;;23.80;99.90;;;;;;5066675;28;20716;-53
2021/06/20 04:02:42;;;;;;;1.75;1.25;;;23.90;99.90;;;;;;5066996;28;20091;-53
2021/06/20 04:05:09;;;;;;;2.60;1.55;;;23.90;99.90;;;;;;5066834;28;20475;-54
2021/06/20 04:07:35;;;;;;;4.45;1.35;;;23.80;99.90;;;;;;5066995;28;20025;-54
2021/06/20 04:10:03;;;;;;;2.50;1.35;;;23.80;99.90;;;;;;5066683;28;20490;-53
2021/06/20 04:12:29;;;;;;;4.13;1.30;;;23.80;99.90;;;;;;5066744;28;20528;-53
2021/06/20 04:14:54;;;;;;;3.10;1.38;;;23.90;99.90;;;;;;5067247;28;20127;-53
2021/06/20 04:17:22;;;;;;;2.15;1.20;;;23.90;99.90;;;;;;5067151;28;20071;-53
2021/06/20 04:19:48;;;;;;;3.00;1.40;;;23.90;99.90;;;;;;5066490;28;20033;-55
2021/06/20 04:22:14;;;;;;;3.13;1.33;;;23.80;99.90;;;;;;5064830;28;20104;-56
2021/06/20 04:24:40;;;;;;;2.45;1.30;;;23.70;99.90;;;;;;5065158;28;20107;-56
2021/06/20 04:27:07;;;;;;;2.00;1.50;;;23.70;99.90;;;;;;5065076;28;20066;-54
2021/06/20 04:29:33;;;;;;;3.13;1.25;;;23.80;99.90;;;;;;5065200;28;20505;-55
2021/06/20 04:32:00;;;;;;;1.88;1.00;;;23.80;99.90;;;;;;5064783;28;20024;-55
2021/06/20 04:34:26;;;;;;;3.85;1.50;;;23.70;99.90;;;;;;5063616;28;20028;-55
2021/06/20 04:36:52;;;;;;;5.05;1.30;;;23.80;99.90;;;;;;5067346;28;20543;-56
2021/06/20 04:39:18;;;;;;;1.50;1.20;;;23.80;99.90;;;;;;5066605;28;20025;-56
2021/06/20 04:41:44;;;;;;;2.72;1.30;;;23.80;99.90;;;;;;5066432;28;20029;-56
2021/06/20 04:47:13;;;;;;;2.38;1.30;;;23.80;99.90;;;;;;5063448;28;20158;-57
2021/06/20 04:49:39;;;;;;;2.55;1.60;;;23.80;99.90;;;;;;5064075;28;20040;-56
2021/06/20 04:52:06;;;;;;;4.60;1.70;;;23.90;99.90;;;;;;5065988;28;20119;-56
2021/06/20 04:54:33;;;;;;;2.92;1.38;;;23.90;99.90;;;;;;5066562;28;20099;-56
2021/06/20 04:56:59;;;;;;;4.30;1.33;;;23.90;99.90;;;;;;5066230;28;20056;-56
2021/06/20 04:59:24;;;;;;;5.35;1.73;;;23.90;99.90;;;;;;5067095;28;20028;-56
2021/06/20 05:01:50;;;;;;;2.88;1.38;;;23.80;99.90;;;;;;5066867;28;20032;-56
2021/06/20 05:04:16;;;;;;;1.95;1.30;;;23.80;99.90;;;;;;5070113;28;20030;-56
2021/06/20 05:06:41;;;;;;;3.15;1.63;;;23.80;99.90;;;;;;5070589;28;20467;-56
2021/06/20 05:09:07;;;;;;;3.53;1.35;;;23.90;99.90;;;;;;5068738;28;20383;-56
2021/06/20 05:11:33;;;;;;;3.85;1.90;;;23.90;99.90;;;;;;5070336;28;20367;-56
2021/06/20 05:13:58;;;;;;;3.72;1.40;;;23.80;99.90;;;;;;5070121;28;20557;-56
2021/06/20 05:16:24;;;;;;;2.90;1.48;;;23.90;99.90;;;;;;5070816;28;20032;-56
2021/06/20 05:18:50;;;;;;;2.03;1.13;;;23.90;99.90;;;;;;5071010;28;20497;-56
2021/06/20 05:21:16;;;;;;;3.72;1.70;;;23.90;99.90;;;;;;5069874;28;20522;-56
2021/06/20 05:23:42;;;;;;;3.75;1.10;;;23.90;99.90;;;;;;5069917;28;20036;-56
2021/06/20 05:26:07;;;;;;;2.70;1.60;;;23.90;99.90;;;;;;5069612;28;20024;-56
2021/06/20 05:28:33;;;;;;;3.25;1.70;;;24.00;99.90;;;;;;5069971;28;20374;-56
2021/06/20 05:30:59;;;;;;;3.15;1.40;;;23.90;99.90;;;;;;5069517;28;20104;-56
2021/06/20 05:33:25;;;;;;;2.40;1.20;;;23.90;99.90;;;;;;5071418;28;20039;-56
2021/06/20 05:35:50;;;;;;;2.60;1.30;;;23.90;99.90;;;;;;5089474;28;20683;-56
2021/06/20 05:38:16;;;;;;;3.78;1.50;;;24.00;99.90;;;;;;5076808;28;20033;-56
2021/06/20 05:40:43;;;;;;;2.17;1.20;;;23.80;99.90;;;;;;5069755;28;20043;-56
2021/06/20 05:43:09;;;;;;;2.08;1.10;;;23.90;99.90;;;;;;5069467;28;20021;-56
2021/06/20 05:45:35;;;;;;;3.42;1.58;;;23.90;99.90;;;;;;5069390;28;20032;-56
2021/06/20 05:48:01;;;;;;;3.40;1.30;;;23.90;99.90;;;;;;5069002;28;20414;-55
2021/06/20 05:50:27;;;;;;;3.40;1.63;;;23.80;99.90;;;;;;5083823;28;20032;-57
2021/06/20 05:52:53;;;;;;;3.03;1.40;;;23.80;99.90;;;;;;5071703;28;20108;-55
2021/06/20 05:55:19;;;;;;;2.53;1.45;;;23.80;99.90;;;;;;5069840;28;20100;-56
2021/06/20 05:57:45;;;;;;;3.72;1.35;;;23.80;99.90;;;;;;5070564;28;20545;-56
2021/06/20 06:00:11;;;;;;;5.35;1.60;;;23.80;99.90;;;;;;5087207;28;20038;-56
2021/06/20 06:02:37;;;;;;;2.45;1.15;;;23.70;99.90;;;;;;5086250;28;20123;-56
2021/06/20 06:05:05;;;;;;;2.13;1.20;;;23.80;99.90;;;;;;5088337;28;20107;-53
2021/06/20 06:07:30;;;;;;;2.97;1.50;;;23.80;99.90;;;;;;5089518;28;20080;-52
2021/06/20 06:09:56;;;;;;;2.80;1.30;;;23.90;99.90;;;;;;5080343;28;20096;-52
2021/06/20 06:12:23;;;;;;;1.92;1.33;;;23.80;99.90;;;;;;5069663;28;20518;-54
2021/06/20 06:14:54;;;;;;;1.42;1.10;;;23.90;99.90;;;;;;5072177;28;20029;-53
2021/06/20 06:17:21;;;;;;;1.95;1.35;;;23.90;99.90;;;;;;5083986;28;20107;-51
2021/06/20 06:19:48;;;;;;;1.75;1.23;;;24.00;99.90;;;;;;5073778;28;20024;-53
2021/06/20 06:22:18;;;;;;;3.10;1.10;;;24.00;99.90;;;;;;5077446;28;20032;-51
2021/06/20 06:24:45;;;;;;;2.45;1.60;;;24.00;99.90;;;;;;5078936;28;20063;-51
2021/06/20 06:27:12;;;;;;;3.50;1.40;;;24.00;99.90;;;;;;5095939;28;20035;-49
2021/06/20 06:29:38;;;;;;;2.25;1.42;;;24.10;99.90;;;;;;5069968;28;20059;-54
2021/06/20 06:32:05;;;;;;;3.20;1.35;;;24.20;99.90;;;;;;5078872;28;20049;-52
2021/06/20 06:34:31;;;;;;;1.95;1.30;;;24.20;99.90;;;;;;5082711;28;20032;-52
2021/06/20 06:36:57;;;;;;;4.20;1.73;;;24.20;99.90;;;;;;5077624;28;20023;-53
2021/06/20 06:39:22;;;;;;;3.95;1.45;;;24.10;99.90;;;;;;5081634;28;20032;-52
2021/06/20 06:41:48;;;;;;;2.13;1.27;;;24.20;99.90;;;;;;5072741;28;20020;-54
2021/06/20 06:44:14;;;;;;;4.05;1.60;;;24.10;99.90;;;;;;5084785;28;20036;-51
2021/06/20 06:46:39;;;;;;;1.98;1.25;;;24.10;99.90;;;;;;5084646;28;20021;-51
2021/06/20 06:49:05;;;;;;;2.58;1.45;;;24.00;99.90;;;;;;5068156;28;20036;-54
2021/06/20 06:51:31;;;;;;;3.45;1.60;;;24.20;99.90;;;;;;5078057;28;20036;-53
2021/06/20 06:53:57;;;;;;;2.85;1.30;;;24.20;99.90;;;;;;5088495;28;20063;-53
2021/06/20 06:56:22;;;;;;;2.55;1.10;;;24.10;99.90;;;;;;5074353;28;20028;-52
2021/06/20 06:58:48;;;;;;;3.60;1.30;;;24.10;99.90;;;;;;5068229;28;20036;-54
2021/06/20 07:01:14;;;;;;;3.20;1.00;;;24.40;99.90;;;;;;5069008;28;20450;-54
2021/06/20 07:03:40;;;;;;;4.97;1.85;;;24.50;99.90;;;;;;5068203;28;20088;-52
2021/06/20 07:06:05;;;;;;;7.32;1.63;;;24.40;99.90;;;;;;5077721;28;20054;-52
2021/06/20 07:08:31;;;;;;;4.45;1.63;;;24.30;99.90;;;;;;5088415;28;20031;-53
2021/06/20 07:10:57;;;;;;;6.95;1.95;;;24.40;99.90;;;;;;5073366;28;20024;-53
2021/06/20 07:13:22;;;;;;;5.78;1.80;;;24.50;99.90;;;;;;5070630;28;20692;-53
2021/06/20 07:15:48;;;;;;;7.32;2.38;;;24.50;99.90;;;;;;5067551;28;20598;-55
2021/06/20 07:18:14;;;;;;;6.65;1.90;;;24.50;99.90;;;;;;5068150;28;20032;-53
2021/06/20 07:20:41;;;;;;;7.85;2.30;;;24.60;99.90;;;;;;5075465;28;20020;-53
2021/06/20 07:23:06;;;;;;;8.48;2.20;;;24.60;99.90;;;;;;5074109;28;20028;-52
2021/06/20 07:25:32;;;;;;;8.43;2.63;;;24.60;99.90;;;;;;5066628;28;20077;-53
2021/06/20 07:27:58;;;;;;;9.75;2.80;;;24.60;99.90;;;;;;5075201;28;20020;-54
2021/06/20 07:30:26;;;;;;;8.90;2.35;;;24.60;99.90;;;;;;5075492;28;20102;-53
2021/06/20 07:32:52;;;;;;;10.05;3.38;;;24.60;99.90;;;;;;5072745;28;20028;-54
2021/06/20 07:35:17;;;;;;;9.20;2.92;;;24.80;99.90;;;;;;5069487;28;20517;-53
2021/06/20 07:37:43;;;;;;;4.47;1.90;;;24.80;99.90;;;;;;5067411;28;20025;-53
2021/06/20 07:40:12;;;;;;;6.05;2.92;;;24.90;99.90;;;;;;5067169;28;20039;-52
2021/06/20 07:42:38;;;;;;;9.00;2.67;;;25.00;99.90;;;;;;5083951;28;20101;-55
2021/06/20 07:45:05;;;;;;;6.70;2.00;;;25.00;99.90;;;;;;5081696;28;20032;-53
2021/06/20 07:47:32;;;;;;;8.25;2.38;;;25.00;99.90;;;;;;5074423;28;20486;-54
2021/06/20 07:49:57;;;;;;;5.50;2.13;;;25.00;99.90;;;;;;5069747;28;20028;-54
2021/06/20 07:52:23;;;;;;;4.05;1.70;;;25.10;99.90;;;;;;5067289;28;20502;-54
2021/06/20 07:54:49;;;;;;;4.10;1.52;;;25.10;99.90;;;;;;5071713;28;20032;-55
2021/06/20 07:57:21;;;;;;;3.65;1.40;;;25.10;99.90;;;;;;5071154;28;20667;-53
2021/06/20 07:59:48;;;;;;;3.63;1.15;;;25.30;99.90;;;;;;5087419;28;20119;-53
2021/06/20 08:02:16;;;;;;;6.10;1.95;;;25.30;99.90;;;;;;5082876;28;20410;-54
2021/06/20 08:04:42;;;;;;;6.50;1.67;;;25.30;99.90;;;;;;5072217;28;20024;-54
2021/06/20 08:07:09;;;;;;;10.18;2.20;;;25.30;99.90;;;;;;5077266;28;20017;-52
2021/06/20 08:09:36;;;;;;;3.53;1.55;;;25.50;99.90;;;;;;5083569;28;20387;-53
2021/06/20 08:12:02;;;;;;;3.50;1.48;;;25.50;99.90;;;;;;5091698;28;20032;-54
2021/06/20 08:14:28;;;;;;;6.18;1.45;;;25.70;99.90;;;;;;5086544;28;20122;-53
2021/06/20 08:16:55;;;;;;;3.85;1.25;;;25.80;99.90;;;;;;5087104;28;20123;-55
2021/06/20 08:19:20;;;;;;;2.55;1.30;;;25.90;99.90;;;;;;5087025;28;20097;-53
2021/06/20 08:21:48;;;;;;;5.22;1.15;;;25.90;99.90;;;;;;5085992;28;20493;-54
2021/06/20 08:24:14;;;;;;;3.33;1.20;;;25.90;99.90;;;;;;5085785;28;20077;-54
2021/06/20 08:26:40;;;;;;;4.38;1.33;;;25.90;99.90;;;;;;5071125;28;20502;-53
2021/06/20 08:29:06;;;;;;;8.18;2.35;;;26.00;99.90;;;;;;5085719;28;20027;-53
2021/06/20 08:31:33;;;;;;;6.32;2.15;;;26.00;99.90;;;;;;5079788;28;20139;-51
2021/06/20 08:34:00;;;;;;;4.80;1.65;;;26.00;99.90;;;;;;5066215;28;20021;-54
2021/06/20 08:36:27;;;;;;;3.97;1.20;;;26.00;99.90;;;;;;5071035;28;20477;-54
2021/06/20 08:38:53;;;;;;;5.07;1.50;;;26.10;99.90;;;;;;5082116;28;20368;-54
2021/06/20 08:41:21;;;;;;;2.13;1.20;;;26.20;99.90;;;;;;5069010;28;20047;-54
2021/06/20 08:43:49;;;;;;;3.17;1.33;;;26.40;99.90;;;;;;5077333;28;20119;-53
2021/06/20 08:46:15;;;;;;;3.20;1.23;;;26.50;99.90;;;;;;5065951;28;20033;-53
2021/06/20 08:48:41;;;;;;;5.50;1.85;;;26.70;99.90;;;;;;5066725;28;20105;-55
2021/06/20 08:51:07;;;;;;;9.13;3.13;;;26.70;99.90;;;;;;5076197;28;20096;-55
2021/06/20 08:53:32;;;;;;;8.90;2.80;;;26.70;99.90;;;;;;5079796;28;20029;-54
2021/06/20 08:55:59;;;;;;;14.90;2.88;;;26.60;99.90;;;;;;5079015;28;20466;-56
2021/06/20 08:58:27;;;;;;;19.00;4.40;;;26.70;99.90;;;;;;5072255;28;20046;-55
2021/06/20 09:00:54;;;;;;;16.33;3.30;;;26.60;99.90;;;;;;5065550;28;20055;-54
2021/06/20 09:03:20;;;;;;;14.43;3.60;;;26.70;99.90;;;;;;5069629;28;20506;-56
2021/06/20 09:06:01;;;;;;;17.63;4.00;;;27.00;99.90;;;;;;5066733;28;20036;-53
2021/06/20 09:08:29;;;;;;;16.50;4.13;;;27.10;99.90;;;;;;5067000;28;20449;-54
2021/06/20 09:10:59;;;;;;;14.52;3.25;;;27.10;99.90;;;;;;5083037;28;20028;-54
2021/06/20 09:13:35;;;;;;;10.63;3.13;;;27.20;99.90;;;;;;5087534;28;20026;-56
2021/06/20 09:16:03;;;;;;;12.38;3.70;;;27.20;99.90;;;;;;5072128;28;20033;-54
2021/06/20 09:18:29;;;;;;;14.85;3.53;;;27.20;99.90;;;;;;5077031;28;20513;-56
2021/06/20 09:20:55;;;;;;;19.27;4.55;;;27.20;99.90;;;;;;5086479;28;20051;-54
2021/06/20 09:23:21;;;;;;;23.95;5.20;;;27.20;99.90;;;;;;5087666;28;20020;-51
2021/06/20 09:26:00;;;;;;;25.80;5.40;;;27.20;99.90;;;;;;5080699;28;20067;-51
2021/06/20 09:28:35;;;;;;;20.35;4.95;;;27.30;99.90;;;;;;5076053;28;20513;-55
2021/06/20 09:31:02;;;;;;;20.60;4.65;;;27.30;99.90;;;;;;5067788;28;20034;-53
2021/06/20 09:33:33;;;;;;;18.38;4.70;;;27.40;99.90;;;;;;5077755;28;20074;-55
2021/06/20 09:35:59;;;;;;;17.27;3.95;;;27.50;99.90;;;;;;5083046;28;20028;-54
2021/06/20 09:38:30;;;;;;;23.50;5.32;;;27.40;99.90;;;;;;5086312;28;20020;-55
2021/06/20 09:41:14;;;;;;;21.85;4.63;;;27.30;99.90;;;;;;5071848;28;20491;-54
2021/06/20 09:43:55;;;;;;;20.55;4.45;;;27.20;99.90;;;;;;5065070;28;20025;-51
2021/06/20 09:46:21;;;;;;;19.65;4.47;;;27.30;99.90;;;;;;5067571;28;20044;-54
2021/06/20 09:48:47;;;;;;;18.88;4.80;;;27.20;99.90;;;;;;5082791;28;20502;-55
2021/06/20 09:51:16;;;;;;;16.25;4.35;;;27.10;99.90;;;;;;5087514;28;20040;-55
2021/06/20 09:53:43;;;;;;;25.05;5.07;;;27.10;99.90;;;;;;5073210;28;20456;-52
2021/06/20 09:56:18;;;;;;;22.67;5.35;;;27.10;99.90;;;;;;5076129;28;20044;-54
2021/06/20 09:58:46;;;;;;;18.90;4.70;;;27.10;99.90;;;;;;5067032;28;20040;-54
2021/06/20 10:01:15;;;;;;;21.33;4.97;;;27.10;99.90;;;;;;5071254;28;20097;-53
2021/06/20 10:03:42;;;;;;;25.33;5.28;;;27.00;99.90;;;;;;5084112;28;20075;-53
2021/06/20 10:06:10;;;;;;;20.48;5.28;;;26.90;99.90;;;;;;5089040;28;20494;-54
2021/06/20 10:08:36;;;;;;;19.58;4.53;;;26.90;99.90;;;;;;5079229;28;20046;-55
2021/06/20 10:11:02;;;;;;;17.50;4.53;;;26.90;99.90;;;;;;5075288;28;20039;-54
2021/06/20 10:13:28;;;;;;;17.38;4.55;;;26.80;99.90;;;;;;5082013;28;20024;-54
2021/06/20 10:15:57;;;;;;;20.00;4.93;;;26.80;99.90;;;;;;5076661;28;20016;-54
2021/06/20 10:18:24;;;;;;;23.10;5.13;;;26.70;99.90;;;;;;5079142;28;20027;-54
2021/06/20 10:20:57;;;;;;;25.75;6.05;;;26.70;99.90;;;;;;5073235;28;20032;-57
2021/06/20 10:23:24;;;;;;;26.45;5.13;;;26.40;99.90;;;;;;5071140;28;20106;-55
2021/06/20 10:25:51;;;;;;;19.35;5.03;;;26.20;99.90;;;;;;5082098;28;20024;-56
2021/06/20 10:28:21;;;;;;;25.42;4.78;;;26.00;99.90;;;;;;5071518;28;20029;-56
2021/06/20 10:30:47;;;;;;;19.55;4.78;;;25.80;99.90;;;;;;5070419;28;20021;-54
2021/06/20 10:33:20;;;;;;;17.23;4.57;;;25.50;99.90;;;;;;5073651;28;20023;-53
2021/06/20 10:36:01;;;;;;;19.77;4.60;;;25.30;99.90;;;;;;5088138;28;20145;-56
2021/06/20 10:38:43;;;;;;;19.80;4.63;;;25.20;99.90;;;;;;5076478;28;20052;-54
2021/06/20 10:41:22;;;;;;;12.32;3.33;;;25.10;99.90;;;;;;5072415;28;20028;-55
2021/06/20 10:44:00;;;;;;;17.35;4.30;;;25.10;99.90;;;;;;5075435;28;20020;-54
2021/06/20 10:46:26;;;;;;;20.33;4.50;;;25.00;99.90;;;;;;5076590;28;20025;-56
2021/06/20 10:48:52;;;;;;;16.05;4.03;;;25.00;99.90;;;;;;5077052;28;20035;-56
2021/06/20 10:51:19;;;;;;;16.65;3.53;;;24.90;99.90;;;;;;5078623;28;20036;-57
2021/06/20 10:53:45;;;;;;;17.73;3.88;;;24.90;99.90;;;;;;5074925;28;20029;-56
2021/06/20 10:56:23;;;;;;;11.95;3.08;;;24.90;99.90;;;;;;5084357;28;20036;-54
2021/06/20 10:58:52;;;;;;;14.20;3.72;;;24.80;99.90;;;;;;5074166;28;20024;-55
2021/06/20 11:01:20;;;;;;;14.25;4.25;;;24.80;99.90;;;;;;5071524;28;20043;-58
2021/06/20 11:03:52;;;;;;;10.48;3.35;;;24.80;99.90;;;;;;5067954;28;20029;-56
2021/06/20 11:06:22;;;;;;;12.98;3.08;;;24.80;99.90;;;;;;5071310;28;20145;-55
2021/06/20 11:09:06;;;;;;;9.75;2.25;;;24.70;99.90;;;;;;5075759;28;20012;-57
2021/06/20 11:11:34;;;;;;;14.88;4.03;;;24.70;99.90;;;;;;5088062;28;20020;-55
2021/06/20 11:14:07;;;;;;;10.18;2.63;;;24.50;99.90;;;;;;5085817;28;20111;-56
2021/06/20 11:16:40;;;;;;;10.98;3.03;;;24.60;99.90;;;;;;5083968;28;20078;-56
2021/06/20 11:19:13;;;;;;;10.20;2.50;;;24.60;99.90;;;;;;5073166;28;20038;-53
2021/06/20 11:21:58;;;;;;;6.57;2.22;;;24.50;99.90;;;;;;5071639;28;20032;-53
2021/06/20 11:24:32;;;;;;;10.07;2.95;;;24.50;99.90;;;;;;5087410;28;20395;-54
2021/06/20 11:27:02;;;;;;;;;;;24.30;99.90;;;;;;5067388;28;20012;-53
2021/06/20 11:29:47;;;;;;;21.15;4.25;;;24.20;99.90;;;;;;5067526;28;19958;-52
2021/06/20 11:32:20;;;;;;;18.02;3.97;;;22.80;99.90;;;;;;5078304;28;20017;-48
2021/06/20 11:34:51;;;;;;;9.10;1.90;;;21.60;99.90;;;;;;5077424;28;20042;-50
2021/06/20 11:37:26;;;;;;;8.70;2.20;;;21.30;99.90;;;;;;5068119;28;20450;-52
2021/06/20 11:40:03;;;;;;;12.63;2.45;;;21.40;99.90;;;;;;5069086;28;20395;-54
2021/06/20 11:42:34;;;;;;;11.02;2.35;;;21.70;99.90;;;;;;5066483;28;20456;-55
2021/06/20 11:45:04;;;;;;;10.32;2.47;;;21.90;99.90;;;;;;5081309;28;20444;-55
2021/06/20 11:47:36;;;;;;;10.13;2.25;;;22.00;99.90;;;;;;5083243;28;20533;-56
2021/06/20 11:50:14;;;;;;;11.68;2.20;;;22.10;99.90;;;;;;5082676;28;20028;-55
2021/06/20 11:52:43;;;;;;;10.20;2.58;;;22.00;99.90;;;;;;5071535;28;20028;-55
2021/06/20 11:55:17;;;;;;;8.30;1.88;;;22.10;99.90;;;;;;5072010;28;20040;-55
2021/06/20 11:57:43;;;;;;;;;;;22.10;99.90;;;;;;5075213;28;20048;-54
2021/06/20 12:00:15;;;;;;;8.68;2.25;;;22.30;99.90;;;;;;5082175;28;20290;-55
2021/06/20 12:02:45;;;;;;;6.80;1.95;;;22.80;99.90;;;;;;5073151;28;20489;-54
2021/06/20 12:05:15;;;;;;;5.43;1.38;;;22.90;99.90;;;;;;5085811;28;20111;-55
2021/06/20 12:07:42;;;;;;;4.15;1.88;;;23.30;99.90;;;;;;5078530;28;20103;-54
2021/06/20 12:10:12;;;;;;;3.95;1.13;;;23.40;99.90;;;;;;5072511;28;20017;-54
2021/06/20 12:12:39;;;;;;;4.55;1.75;;;23.90;99.90;;;;;;5076938;28;20499;-53
2021/06/20 12:15:06;;;;;;;6.82;1.63;;;23.80;99.90;;;;;;5072147;28;20416;-54
2021/06/20 12:17:31;;;;;;;5.18;1.77;;;23.60;99.90;;;;;;5074921;28;20447;-54
2021/06/20 12:19:57;;;;;;;6.30;1.48;;;23.50;99.90;;;;;;5077788;28;20036;-54
2021/06/20 12:22:24;;;;;;;7.97;1.58;;;23.60;99.90;;;;;;5083891;28;20377;-53
2021/06/20 12:24:56;;;;;;;2.35;0.80;;;23.50;99.90;;;;;;5074989;28;20032;-54
2021/06/20 12:27:36;;;;;;;3.42;1.02;;;23.50;99.90;;;;;;5084303;28;20064;-55
2021/06/20 12:30:14;;;;;;;3.97;1.20;;;23.50;99.90;;;;;;5084246;28;20037;-55
2021/06/20 12:32:41;;;;;;;7.50;1.60;;;23.20;99.90;;;;;;5078784;28;20047;-54
2021/06/20 12:35:07;;;;;;;7.80;1.83;;;22.80;99.90;;;;;;5073060;28;20029;-54
2021/06/20 12:37:40;;;;;;;4.40;1.52;;;22.80;99.90;;;;;;5083346;28;20110;-53
2021/06/20 12:40:15;;;;;;;4.43;1.20;;;22.70;99.90;;;;;;5079793;28;20020;-54
2021/06/20 12:42:51;;;;;;;6.10;1.65;;;22.70;99.90;;;;;;5070640;28;20415;-54
2021/06/20 12:45:30;;;;;;;3.92;1.33;;;22.40;99.90;;;;;;5067234;28;20033;-55
2021/06/20 12:47:58;;;;;;;5.50;2.08;;;22.40;99.90;;;;;;5070022;28;20039;-55
2021/06/20 12:50:30;;;;;;;6.70;1.67;;;22.50;99.90;;;;;;5066896;28;20033;-55
2021/06/20 12:52:57;;;;;;;2.72;1.10;;;23.10;99.90;;;;;;5066234;28;20063;-55